Time;durP1;ratioP1;P1;durP2;ratioP2;P2;SDS_P1;SDS_P2;PMS_P1;PMS_P2;Temp;Humidity;BMP_temperature;BMP_pressure;BME280_temperature;BME280_humidity;BME280_pressure;Samples;Min_cycle;Max_cycle;Signal;HPM_P1;HPM_P2
2022/05/11 00:01:10;;;;;;;11.45;7.45;;;13.50;99.90;;;;;;5004590;28;20076;-77
2022/05/11 00:03:36;;;;;;;11.70;7.22;;;13.50;99.90;;;;;;5021225;28;20055;-77
2022/05/11 00:06:01;;;;;;;14.18;8.38;;;13.50;99.90;;;;;;5019127;28;20045;-77
2022/05/11 00:08:27;;;;;;;10.93;7.75;;;14.90;99.90;;;;;;5018714;28;20061;-77
2022/05/11 00:10:53;;;;;;;13.13;7.70;;;13.50;99.90;;;;;;5040511;28;20096;-77
2022/05/11 00:13:19;;;;;;;13.82;9.25;;;13.50;99.90;;;;;;5006337;28;20396;-77
2022/05/11 00:15:45;;;;;;;15.77;9.13;;;14.60;99.90;;;;;;5022191;28;20044;-77
2022/05/11 00:18:10;;;;;;;11.75;7.93;;;13.40;99.90;;;;;;5004751;28;20051;-78
2022/05/11 00:20:37;;;;;;;12.52;8.75;;;13.50;99.90;;;;;;5022040;28;20041;-75
2022/05/11 00:23:04;;;;;;;11.48;8.13;;;13.50;99.90;;;;;;5026876;28;20052;-77
2022/05/11 00:25:30;;;;;;;16.35;8.80;;;13.50;99.90;;;;;;5035813;28;20046;-76
2022/05/11 00:27:57;;;;;;;18.77;9.23;;;13.50;99.90;;;;;;5026071;28;20141;-76
2022/05/11 00:30:25;;;;;;;11.40;7.10;;;13.50;99.90;;;;;;5018742;28;20055;-76
2022/05/11 00:32:52;;;;;;;9.95;8.18;;;13.50;99.90;;;;;;5018316;28;20064;-76
2022/05/11 00:35:18;;;;;;;9.82;7.95;;;13.60;99.90;;;;;;5005868;28;20036;-76
2022/05/11 00:37:44;;;;;;;13.80;7.43;;;13.50;99.90;;;;;;5030017;28;20423;-75
2022/05/11 00:40:10;;;;;;;14.02;8.60;;;13.70;99.90;;;;;;5034987;28;20033;-75
2022/05/11 00:42:36;;;;;;;11.95;7.82;;;13.60;99.90;;;;;;5036084;28;20045;-75
2022/05/11 00:45:03;;;;;;;11.38;7.07;;;13.60;99.90;;;;;;5003527;28;20068;-77
2022/05/11 00:47:42;;;;;;;14.57;7.35;;;13.60;99.90;;;;;;5030180;28;20045;-77
2022/05/11 00:50:22;;;;;;;12.35;7.63;;;13.60;99.90;;;;;;5018427;28;20037;-76
2022/05/11 00:53:11;;;;;;;15.15;7.97;;;13.70;99.90;;;;;;5025484;28;20094;-76
2022/05/11 00:55:48;;;;;;;14.45;7.65;;;13.60;99.90;;;;;;5007905;28;20519;-77
2022/05/11 00:58:17;;;;;;;11.95;7.82;;;13.70;99.90;;;;;;5043179;28;20067;-76
2022/05/11 01:00:44;;;;;;;12.45;8.32;;;14.30;99.90;;;;;;5009111;28;20041;-76
2022/05/11 01:03:14;;;;;;;16.98;7.80;;;13.60;99.90;;;;;;5021444;28;20071;-76
2022/05/11 01:05:43;;;;;;;13.00;6.72;;;13.70;99.90;;;;;;5022236;28;20050;-76
2022/05/11 01:08:11;;;;;;;14.38;7.25;;;14.40;99.90;;;;;;5007476;28;20123;-76
2022/05/11 01:10:37;;;;;;;9.43;6.68;;;13.70;99.90;;;;;;5033686;28;20045;-76
2022/05/11 01:13:07;;;;;;;10.00;7.43;;;13.70;99.90;;;;;;5021757;28;20056;-76
2022/05/11 01:15:33;;;;;;;13.52;8.48;;;13.60;99.90;;;;;;5022062;28;20381;-76
2022/05/11 01:18:01;;;;;;;10.77;7.55;;;13.70;99.90;;;;;;5013032;28;20048;-77
2022/05/11 01:20:30;;;;;;;9.38;7.30;;;13.60;99.90;;;;;;5004571;28;20485;-77
2022/05/11 01:23:17;;;;;;;9.63;7.88;;;13.60;99.90;;;;;;5004700;28;20055;-76
2022/05/11 01:25:44;;;;;;;11.30;7.38;;;12.90;99.90;;;;;;5022192;28;20120;-76
2022/05/11 01:28:13;;;;;;;10.57;7.68;;;13.60;99.90;;;;;;5023407;28;20118;-76
2022/05/11 01:30:45;;;;;;;9.00;7.15;;;12.70;99.90;;;;;;5024997;28;20045;-76
2022/05/11 01:33:14;;;;;;;13.48;7.68;;;13.60;99.90;;;;;;5021335;28;20037;-76
2022/05/11 01:35:49;;;;;;;15.32;7.15;;;14.50;99.90;;;;;;5020953;28;20250;-76
2022/05/11 01:38:21;;;;;;;9.27;7.35;;;13.60;99.90;;;;;;5038807;28;20392;-76
2022/05/11 01:40:47;;;;;;;9.02;6.70;;;14.30;99.90;;;;;;5021505;28;20436;-76
2022/05/11 01:43:23;;;;;;;12.98;7.28;;;13.60;99.90;;;;;;5022771;28;20056;-76
2022/05/11 01:45:49;;;;;;;9.32;7.15;;;13.70;99.90;;;;;;5025156;28;20049;-77
2022/05/11 01:48:14;;;;;;;11.77;7.13;;;13.60;99.90;;;;;;5004020;28;20124;-77
2022/05/11 01:50:41;;;;;;;10.32;6.57;;;13.60;99.90;;;;;;5004914;28;20050;-76
2022/05/11 01:53:07;;;;;;;7.57;6.00;;;13.70;99.90;;;;;;5006141;28;20501;-76
2022/05/11 01:55:33;;;;;;;11.75;6.60;;;13.60;99.90;;;;;;5024568;28;20033;-76
2022/05/11 01:57:59;;;;;;;13.07;6.63;;;13.60;99.90;;;;;;5006667;28;20470;-76
2022/05/11 02:00:26;;;;;;;9.20;6.40;;;13.60;99.90;;;;;;5039024;28;20489;-76
2022/05/11 02:02:52;;;;;;;6.50;5.70;;;13.50;99.90;;;;;;5011445;28;20045;-76
2022/05/11 02:08:03;;;;;;;9.85;6.90;;;13.50;99.90;;;;;;5028088;28;20136;-76
2022/05/11 02:10:28;;;;;;;7.82;5.93;;;13.50;99.90;;;;;;5020544;28;20041;-76
2022/05/11 02:12:57;;;;;;;9.98;6.22;;;13.50;99.90;;;;;;5007267;28;20049;-76
2022/05/11 02:15:25;;;;;;;8.48;6.70;;;13.50;99.90;;;;;;5018014;28;20165;-76
2022/05/11 02:17:51;;;;;;;8.23;6.45;;;13.50;99.90;;;;;;5017405;28;20409;-76
2022/05/11 02:20:18;;;;;;;11.02;6.47;;;14.90;99.90;;;;;;4997752;28;20053;-76
2022/05/11 02:22:45;;;;;;;11.20;6.60;;;13.40;99.90;;;;;;5021440;28;20048;-76
2022/05/11 02:25:13;;;;;;;6.97;6.15;;;13.40;99.90;;;;;;5013517;28;20128;-75
2022/05/11 02:27:39;;;;;;;9.02;6.97;;;13.10;99.90;;;;;;5004369;28;20038;-76
2022/05/11 02:30:08;;;;;;;11.52;5.63;;;13.40;99.90;;;;;;5015135;28;20081;-76
2022/05/11 02:32:34;;;;;;;8.82;6.40;;;13.40;99.90;;;;;;5002584;28;20342;-76
2022/05/11 02:35:12;;;;;;;7.00;5.78;;;13.40;99.90;;;;;;4999477;28;20145;-76
2022/05/11 02:37:42;;;;;;;9.18;6.35;;;13.40;99.90;;;;;;5002993;28;20052;-75
2022/05/11 02:40:09;;;;;;;10.90;6.18;;;13.30;99.90;;;;;;5015011;28;20037;-76
2022/05/11 02:42:35;;;;;;;7.20;5.68;;;13.30;99.90;;;;;;5013414;28;20422;-76
2022/05/11 02:45:02;;;;;;;9.05;6.07;;;14.20;99.90;;;;;;5004307;28;20046;-76
2022/05/11 02:47:27;;;;;;;8.40;6.07;;;13.30;99.90;;;;;;5002401;28;20073;-75
2022/05/11 02:49:53;;;;;;;7.88;5.85;;;13.40;99.90;;;;;;5000851;28;20061;-76
2022/05/11 02:52:18;;;;;;;8.25;5.75;;;13.30;99.90;;;;;;4999355;28;20525;-76
2022/05/11 02:54:48;;;;;;;7.70;5.60;;;13.30;99.90;;;;;;5000607;28;20048;-76
2022/05/11 02:57:15;;;;;;;8.25;6.05;;;13.30;99.90;;;;;;4997009;28;20056;-76
2022/05/11 02:59:41;;;;;;;12.55;6.03;;;13.30;99.90;;;;;;5002976;28;20508;-76
2022/05/11 03:02:06;;;;;;;11.68;6.25;;;14.70;99.90;;;;;;4997717;28;20042;-77
2022/05/11 03:04:32;;;;;;;8.35;6.75;;;13.30;99.90;;;;;;5002559;28;20088;-76
2022/05/11 03:06:57;;;;;;;8.45;5.20;;;13.30;99.90;;;;;;4998883;28;20397;-76
2022/05/11 03:09:23;;;;;;;8.48;6.28;;;13.30;99.90;;;;;;5017684;28;20448;-76
2022/05/11 03:11:49;;;;;;;8.70;5.93;;;13.30;99.90;;;;;;5018812;28;20042;-76
2022/05/11 03:14:15;;;;;;;9.02;5.97;;;13.30;99.90;;;;;;5036228;28;20481;-76
2022/05/11 03:16:40;;;;;;;6.55;5.63;;;13.30;99.90;;;;;;5020111;28;20592;-76
2022/05/11 03:19:07;;;;;;;8.98;5.93;;;13.30;99.90;;;;;;5020261;28;20114;-76
2022/05/11 03:21:33;;;;;;;7.55;6.03;;;13.20;99.90;;;;;;5030476;28;20076;-76
2022/05/11 03:23:59;;;;;;;13.63;6.28;;;13.30;99.90;;;;;;5021266;28;20056;-76
2022/05/11 03:26:25;;;;;;;7.65;4.88;;;13.20;99.90;;;;;;5024244;28;20045;-76
2022/05/11 03:28:51;;;;;;;8.52;5.80;;;13.20;99.90;;;;;;5022487;28;20041;-76
2022/05/11 03:31:17;;;;;;;9.25;4.80;;;14.20;99.90;;;;;;5037523;28;20128;-76
2022/05/11 03:36:28;;;;;;;11.10;5.63;;;13.30;99.90;;;;;;5041116;28;20132;-76
2022/05/11 03:38:54;;;;;;;9.70;5.32;;;13.20;99.90;;;;;;5006506;28;20140;-75
2022/05/11 03:41:19;;;;;;;11.30;5.63;;;13.50;99.90;;;;;;5002666;28;20438;-76
2022/05/11 03:43:45;;;;;;;7.60;4.93;;;13.20;99.90;;;;;;5044103;28;20121;-75
2022/05/11 03:46:11;;;;;;;7.18;5.13;;;13.20;99.90;;;;;;5020340;28;20388;-76
2022/05/11 03:48:37;;;;;;;9.35;5.45;;;13.20;99.90;;;;;;5018961;28;20045;-76
2022/05/11 03:51:04;;;;;;;8.35;5.20;;;13.20;99.90;;;;;;5019509;28;20038;-76
2022/05/11 03:53:31;;;;;;;7.82;5.47;;;13.20;99.90;;;;;;5006009;28;20087;-77
2022/05/11 03:55:56;;;;;;;7.78;5.60;;;13.80;99.90;;;;;;5029870;28;20088;-76
2022/05/11 03:58:22;;;;;;;8.75;5.93;;;13.20;99.90;;;;;;5003477;28;20077;-76
2022/05/11 04:00:48;;;;;;;7.50;5.60;;;13.20;99.90;;;;;;5003190;28;20049;-77
2022/05/11 04:03:13;;;;;;;8.65;6.57;;;13.20;99.90;;;;;;5019761;28;20052;-76
2022/05/11 04:05:39;;;;;;;9.45;5.55;;;13.20;99.90;;;;;;5006205;28;20048;-76
2022/05/11 04:08:05;;;;;;;9.98;5.75;;;13.10;99.90;;;;;;5004435;28;20045;-76
2022/05/11 04:10:31;;;;;;;10.57;6.00;;;13.20;99.90;;;;;;5036657;28;20083;-75
2022/05/11 04:12:58;;;;;;;9.60;5.88;;;13.70;99.90;;;;;;5001770;28;20053;-75
2022/05/11 04:15:24;;;;;;;11.63;5.82;;;13.20;99.90;;;;;;5047387;28;20099;-76
2022/05/11 04:17:49;;;;;;;12.98;6.20;;;13.50;99.90;;;;;;5022010;28;20557;-76
2022/05/11 04:20:18;;;;;;;9.23;5.60;;;13.20;99.90;;;;;;5037385;28;20045;-75
2022/05/11 04:22:44;;;;;;;13.70;6.35;;;13.20;99.90;;;;;;5018492;28;20091;-76
2022/05/11 04:25:15;;;;;;;9.93;6.20;;;13.20;99.90;;;;;;5036723;28;20443;-76
2022/05/11 04:27:45;;;;;;;7.93;5.97;;;13.20;99.90;;;;;;5006093;28;20076;-76
2022/05/11 04:30:12;;;;;;;9.32;5.55;;;13.20;99.90;;;;;;5036823;28;20185;-76
2022/05/11 04:32:38;;;;;;;10.52;5.32;;;13.20;99.90;;;;;;5002692;28;20045;-75
2022/05/11 04:35:04;;;;;;;10.35;6.30;;;13.20;99.90;;;;;;5019171;28;20373;-78
2022/05/11 04:37:30;;;;;;;11.40;5.60;;;13.20;99.90;;;;;;5021583;28;20076;-76
2022/05/11 04:39:55;;;;;;;18.27;7.32;;;13.20;99.90;;;;;;5005920;28;20475;-76
2022/05/11 04:42:24;;;;;;;10.75;5.38;;;13.30;99.90;;;;;;5036544;28;20088;-76
2022/05/11 04:44:52;;;;;;;18.13;8.13;;;13.30;99.90;;;;;;5038394;28;20140;-76
2022/05/11 04:47:18;;;;;;;13.20;5.60;;;14.70;99.90;;;;;;5026958;28;20075;-76
2022/05/11 04:49:43;;;;;;;8.55;4.78;;;13.30;99.90;;;;;;5037731;28;20045;-76
2022/05/11 04:52:13;;;;;;;8.52;5.07;;;13.50;99.90;;;;;;5018378;28;20053;-76
2022/05/11 04:54:44;;;;;;;11.48;5.47;;;13.30;99.90;;;;;;5022114;28;20457;-76
2022/05/11 04:57:12;;;;;;;13.48;7.80;;;14.10;99.90;;;;;;5018130;28;20046;-77
2022/05/11 04:59:41;;;;;;;12.55;7.28;;;13.30;99.90;;;;;;5005694;28;20033;-77
2022/05/11 05:02:13;;;;;;;10.90;5.40;;;13.40;99.90;;;;;;5045381;28;20041;-77
2022/05/11 05:04:38;;;;;;;12.90;5.53;;;13.30;99.90;;;;;;5036642;28;20120;-77
2022/05/11 05:07:04;;;;;;;14.43;5.47;;;13.40;99.90;;;;;;5001163;28;20124;-77
2022/05/11 05:09:30;;;;;;;221.82;101.18;;;13.40;99.90;;;;;;5038675;28;20037;-76
2022/05/11 05:11:56;;;;;;;14.50;6.32;;;13.40;99.90;;;;;;5020792;28;20041;-76
2022/05/11 05:14:21;;;;;;;9.98;4.75;;;13.40;99.90;;;;;;5027336;28;20049;-76
2022/05/11 05:16:48;;;;;;;11.98;4.78;;;13.50;99.90;;;;;;5002504;28;20120;-76
2022/05/11 05:19:14;;;;;;;9.23;4.07;;;13.50;99.90;;;;;;5018828;28;20470;-77
2022/05/11 05:21:40;;;;;;;12.27;5.25;;;14.80;99.90;;;;;;5005070;28;20073;-77
2022/05/11 05:24:06;;;;;;;9.63;4.28;;;13.30;99.90;;;;;;5021434;28;20095;-78
2022/05/11 05:26:32;;;;;;;10.95;4.97;;;13.50;99.90;;;;;;5021733;28;20037;-77
2022/05/11 05:31:42;;;;;;;12.10;5.22;;;13.50;99.90;;;;;;5021639;28;20480;-76
2022/05/11 05:34:08;;;;;;;10.13;4.60;;;13.50;99.90;;;;;;5020721;28;20049;-78
2022/05/11 05:36:36;;;;;;;14.50;6.35;;;13.60;99.90;;;;;;5021911;28;20531;-77
2022/05/11 05:39:03;;;;;;;8.75;4.90;;;13.60;99.90;;;;;;5021519;28;20048;-77
2022/05/11 05:41:29;;;;;;;8.43;4.60;;;13.60;99.90;;;;;;5004080;28;20077;-78
2022/05/11 05:43:55;;;;;;;15.43;4.85;;;13.60;99.90;;;;;;5005168;28;20083;-77
2022/05/11 05:46:22;;;;;;;16.23;8.40;;;13.60;99.90;;;;;;5007281;28;20076;-77
2022/05/11 05:48:48;;;;;;;13.35;5.03;;;15.00;99.90;;;;;;5033047;28;20037;-76
2022/05/11 05:51:17;;;;;;;15.10;5.28;;;13.60;99.90;;;;;;5023771;28;20546;-77
2022/05/11 05:53:43;;;;;;;13.93;5.65;;;15.20;99.90;;;;;;5021517;28;20420;-77
2022/05/11 05:56:10;;;;;;;13.68;5.10;;;13.70;99.90;;;;;;5038594;28;20037;-78
2022/05/11 05:58:36;;;;;;;13.50;5.00;;;14.10;99.90;;;;;;5025163;28;20048;-78
2022/05/11 06:01:03;;;;;;;12.38;4.88;;;13.80;99.90;;;;;;5024200;28;20132;-77
2022/05/11 06:03:32;;;;;;;13.70;5.00;;;13.80;99.90;;;;;;5004846;28;20049;-77
2022/05/11 06:05:57;;;;;;;14.07;5.25;;;14.00;99.90;;;;;;5039054;28;20099;-77
2022/05/11 06:08:23;;;;;;;10.43;4.25;;;15.10;99.90;;;;;;5040036;28;20053;-77
2022/05/11 06:10:52;;;;;;;15.88;5.05;;;13.90;99.90;;;;;;5033037;28;20032;-77
2022/05/11 06:13:20;;;;;;;15.43;4.78;;;13.90;99.90;;;;;;5023095;28;20067;-77
2022/05/11 06:15:46;;;;;;;12.93;5.00;;;13.90;99.90;;;;;;5009356;28;20426;-78
2022/05/11 06:18:12;;;;;;;14.25;5.07;;;13.90;99.90;;;;;;5048887;28;20044;-77
2022/05/11 06:20:38;;;;;;;14.02;5.18;;;14.00;99.90;;;;;;5032629;28;20136;-77
2022/05/11 06:23:07;;;;;;;16.05;5.63;;;14.10;99.90;;;;;;5022896;28;20044;-77
2022/05/11 06:25:34;;;;;;;12.05;5.53;;;14.10;99.90;;;;;;5022035;28;20095;-77
2022/05/11 06:28:00;;;;;;;14.88;4.90;;;13.10;99.90;;;;;;5020756;28;20048;-77
2022/05/11 06:30:28;;;;;;;13.32;4.97;;;14.10;99.90;;;;;;5045395;28;20052;-77
2022/05/11 06:32:54;;;;;;;18.98;5.72;;;14.20;99.90;;;;;;5007852;28;20079;-77
2022/05/11 06:35:21;;;;;;;18.65;8.48;;;14.30;99.90;;;;;;5041940;28;20042;-78
2022/05/11 06:37:50;;;;;;;17.52;5.30;;;14.30;99.90;;;;;;5023675;28;20041;-77
2022/05/11 06:40:17;;;;;;;15.45;5.95;;;14.50;99.90;;;;;;5031561;28;20586;-77
2022/05/11 06:42:42;;;;;;;14.52;5.35;;;14.50;99.90;;;;;;5020280;28;20052;-76
2022/05/11 06:45:09;;;;;;;18.15;5.57;;;14.50;99.90;;;;;;5019958;28;20033;-76
2022/05/11 06:47:35;;;;;;;13.75;5.55;;;14.50;99.90;;;;;;5046138;28;21028;-76
2022/05/11 06:50:02;;;;;;;17.38;5.60;;;14.50;99.90;;;;;;5009738;28;20079;-78
2022/05/11 06:52:27;;;;;;;14.00;5.72;;;14.50;99.90;;;;;;5004167;28;20147;-77
2022/05/11 07:00:23;;;;;;;14.77;5.80;;;14.60;99.90;;;;;;5022569;28;19924;-77
2022/05/11 07:02:52;;;;;;;14.50;6.13;;;14.10;99.90;;;;;;5025167;28;20051;-78
2022/05/11 07:05:18;;;;;;;13.93;5.10;;;14.50;99.90;;;;;;5023501;28;20033;-78
2022/05/11 07:07:43;;;;;;;12.52;4.90;;;14.60;99.90;;;;;;5024167;28;20068;-78
2022/05/11 07:10:10;;;;;;;11.93;5.35;;;14.70;99.90;;;;;;5023603;28;20090;-77
2022/05/11 07:12:38;;;;;;;11.13;4.47;;;14.70;99.90;;;;;;5044664;28;20052;-78
2022/05/11 07:15:08;;;;;;;12.13;5.05;;;14.70;99.90;;;;;;5019302;28;20262;-77
2022/05/11 07:17:52;;;;;;;12.77;5.80;;;14.70;99.90;;;;;;5045644;28;20406;-79
2022/05/11 07:20:30;;;;;;;19.67;5.45;;;14.80;99.90;;;;;;5022618;28;20037;-79
2022/05/11 07:22:56;;;;;;;21.00;5.95;;;14.90;99.90;;;;;;5019088;28;20049;-77
2022/05/11 07:25:24;;;;;;;16.67;5.32;;;14.90;99.90;;;;;;5004461;28;20087;-79
2022/05/11 07:27:52;;;;;;;11.35;4.22;;;14.80;99.90;;;;;;5022784;28;20025;-77
2022/05/11 07:30:26;;;;;;;16.10;4.57;;;15.20;99.90;;;;;;5006819;28;20124;-78
2022/05/11 07:32:51;;;;;;;12.63;3.63;;;15.10;99.90;;;;;;5039791;28;20086;-77
2022/05/11 07:35:20;;;;;;;14.05;4.50;;;15.10;99.90;;;;;;5031443;28;20052;-77
2022/05/11 07:37:47;;;;;;;15.10;4.15;;;15.40;99.90;;;;;;5046094;28;20393;-78
2022/05/11 07:40:15;;;;;;;12.38;3.65;;;15.20;99.90;;;;;;5042094;28;20487;-78
2022/05/11 07:42:40;;;;;;;16.17;3.58;;;15.20;99.90;;;;;;5019808;28;20124;-77
2022/05/11 07:45:07;;;;;;;10.00;2.20;;;15.30;99.90;;;;;;5003008;28;20124;-78
2022/05/11 07:47:33;;;;;;;17.70;4.03;;;15.30;99.90;;;;;;5043689;28;20098;-77
2022/05/11 07:49:59;;;;;;;15.30;3.35;;;15.40;99.90;;;;;;5002773;28;20041;-77
2022/05/11 07:52:25;;;;;;;11.57;3.28;;;15.30;99.90;;;;;;5003298;28;20068;-77
2022/05/11 07:54:51;;;;;;;14.90;3.67;;;16.50;99.90;;;;;;5026945;28;20034;-76
2022/05/11 08:00:02;;;;;;;12.80;3.03;;;15.30;99.90;;;;;;5022705;28;20033;-78
2022/05/11 08:02:31;;;;;;;12.70;3.42;;;15.30;99.90;;;;;;5028992;28;20045;-77
2022/05/11 08:05:02;;;;;;;19.27;3.85;;;15.40;99.90;;;;;;5036519;28;20045;-78
2022/05/11 08:07:37;;;;;;;14.70;3.78;;;15.50;99.90;;;;;;5037885;28;20049;-77
2022/05/11 08:10:03;;;;;;;9.98;3.13;;;15.50;99.90;;;;;;5021853;28;20041;-78
2022/05/11 08:12:29;;;;;;;13.77;3.05;;;15.50;99.90;;;;;;5019968;28;20440;-78
2022/05/11 08:14:54;;;;;;;10.63;3.00;;;15.10;99.90;;;;;;5023308;28;20546;-78
2022/05/11 08:17:29;;;;;;;13.95;3.33;;;15.50;99.90;;;;;;5010958;28;20048;-78
2022/05/11 08:19:55;;;;;;;17.13;3.65;;;15.60;99.90;;;;;;5029941;28;20455;-78
2022/05/11 08:22:22;;;;;;;23.00;3.72;;;15.60;99.90;;;;;;5012518;28;20045;-77
2022/05/11 08:24:49;;;;;;;18.13;3.25;;;15.70;99.90;;;;;;5013638;28;20175;-77
2022/05/11 08:27:22;;;;;;;15.30;2.97;;;17.20;99.90;;;;;;5012029;28;20033;-78
2022/05/11 08:35:17;;;;;;;14.77;2.90;;;15.80;99.90;;;;;;5027074;28;20132;-77
2022/05/11 08:37:43;;;;;;;16.25;3.42;;;16.00;99.90;;;;;;5006250;28;20555;-76
2022/05/11 08:40:32;;;;;;;15.27;3.72;;;16.60;99.90;;;;;;5026793;28;20083;-77
2022/05/11 08:42:58;;;;;;;15.07;4.20;;;15.90;99.90;;;;;;5025119;28;20053;-76
2022/05/11 08:45:55;;;;;;;13.98;3.35;;;15.90;99.90;;;;;;5026135;28;20114;-77
2022/05/11 08:48:54;;;;;;;15.18;3.33;;;15.90;99.90;;;;;;5042367;28;20060;-77
2022/05/11 08:51:41;;;;;;;12.52;3.47;;;15.90;99.90;;;;;;5023445;28;20041;-77
2022/05/11 08:54:15;;;;;;;14.57;3.00;;;16.00;99.90;;;;;;5030787;28;20076;-77
2022/05/11 08:56:42;;;;;;;;;;;16.00;99.90;;;;;;5047631;28;20315;-77
2022/05/11 08:59:16;;;;;;;16.88;3.65;;;16.10;99.90;;;;;;5029017;28;19924;-77
2022/05/11 09:01:54;;;;;;;16.38;3.45;;;17.20;99.90;;;;;;5029056;28;20037;-77
2022/05/11 09:04:36;;;;;;;15.77;3.25;;;16.10;99.90;;;;;;5027118;28;20137;-77
2022/05/11 09:07:03;;;;;;;15.10;3.08;;;16.10;99.90;;;;;;5012415;28;20128;-77
2022/05/11 09:09:30;;;;;;;17.48;3.13;;;16.10;99.90;;;;;;5031275;28;20510;-78
2022/05/11 09:11:56;;;;;;;10.20;2.58;;;16.10;99.90;;;;;;5011635;28;20499;-77
2022/05/11 09:14:49;;;;;;;13.82;4.13;;;16.10;99.90;;;;;;5028494;28;20049;-77
2022/05/11 09:17:25;;;;;;;13.23;2.92;;;16.10;99.90;;;;;;5016186;28;20067;-78
2022/05/11 09:20:10;;;;;;;17.65;3.50;;;16.20;99.90;;;;;;5031381;28;20041;-78
2022/05/11 09:22:59;;;;;;;22.23;3.42;;;16.30;99.90;;;;;;5030620;28;20041;-78
2022/05/11 09:25:31;;;;;;;16.13;3.08;;;16.30;99.90;;;;;;5002268;28;20471;-78
2022/05/11 09:28:34;;;;;;;13.13;2.95;;;16.30;99.90;;;;;;5028196;28;20401;-78
2022/05/11 09:31:05;;;;;;;12.93;2.53;;;16.80;99.90;;;;;;4986153;28;20446;-78
2022/05/11 09:33:34;;;;;;;16.00;3.38;;;16.50;99.90;;;;;;5021970;28;20144;-77
2022/05/11 09:36:02;;;;;;;14.35;2.83;;;16.50;99.90;;;;;;5031629;28;20041;-77
2022/05/11 09:38:40;;;;;;;12.52;2.17;;;16.60;99.90;;;;;;5016616;28;20033;-78
2022/05/11 09:41:19;;;;;;;12.15;2.78;;;17.00;99.90;;;;;;5030909;28;20076;-77
2022/05/11 09:43:46;;;;;;;8.60;2.03;;;16.60;99.90;;;;;;5050637;28;20037;-77
2022/05/11 09:46:27;;;;;;;12.45;2.83;;;16.70;99.90;;;;;;5016697;28;20045;-78
2022/05/11 09:49:15;;;;;;;13.25;2.45;;;16.70;99.90;;;;;;5037394;28;20493;-79
2022/05/11 09:51:48;;;;;;;7.40;1.50;;;16.80;99.90;;;;;;5031946;28;20037;-78
2022/05/11 09:54:38;;;;;;;9.53;2.53;;;16.70;99.90;;;;;;5027450;28;20037;-77
2022/05/11 09:57:11;;;;;;;8.65;2.00;;;17.30;99.90;;;;;;5016663;28;20296;-78
2022/05/11 10:00:02;;;;;;;10.23;2.28;;;17.40;99.90;;;;;;5041111;28;20041;-77
2022/05/11 10:02:38;;;;;;;9.05;2.00;;;17.30;99.90;;;;;;5041777;28;20065;-77
2022/05/11 10:05:20;;;;;;;11.80;2.05;;;17.80;99.90;;;;;;5046588;28;20076;-78
2022/05/11 10:07:51;;;;;;;11.10;1.95;;;17.50;99.90;;;;;;5048032;28;20083;-77
2022/05/11 10:10:37;;;;;;;9.90;2.53;;;17.50;99.90;;;;;;5031929;28;20090;-78
2022/05/11 10:13:16;;;;;;;6.07;1.75;;;17.50;99.90;;;;;;5023517;28;20051;-75
2022/05/11 10:24:37;;;;;;;11.93;2.55;;;17.80;99.90;;;;;;4350470;28;10000671;-79
2022/05/11 10:27:18;;;;;;;14.00;3.42;;;17.90;99.90;;;;;;5026306;28;20066;-78
2022/05/11 10:29:55;;;;;;;11.13;2.83;;;18.00;99.90;;;;;;5030226;28;20060;-79
2022/05/11 10:32:44;;;;;;;16.27;2.58;;;18.10;99.90;;;;;;5029477;28;20392;-78
2022/05/11 10:35:19;;;;;;;19.80;2.90;;;18.30;99.90;;;;;;5029494;28;20106;-79
2022/05/11 10:38:09;;;;;;;17.85;3.17;;;18.30;99.90;;;;;;5010859;28;20041;-79
2022/05/11 10:40:53;;;;;;;12.52;3.08;;;18.30;99.90;;;;;;5025923;28;20041;-78
2022/05/11 10:43:52;;;;;;;12.63;2.95;;;18.20;99.90;;;;;;5018915;28;20045;-79
2022/05/11 10:46:43;;;;;;;6.72;1.50;;;18.30;99.90;;;;;;5013052;28;20044;-79
2022/05/11 10:49:36;;;;;;;15.25;2.92;;;18.50;99.90;;;;;;5020183;28;20084;-78
2022/05/11 10:52:44;;;;;;;13.45;2.47;;;18.50;99.90;;;;;;5021251;28;20136;-78
2022/05/11 10:55:10;;;;;;;14.85;3.15;;;18.50;99.90;;;;;;5039308;28;20107;-80
2022/05/11 10:58:06;;;;;;;12.27;2.35;;;18.60;99.90;;;;;;5026793;28;20080;-80
2022/05/11 11:00:41;;;;;;;18.35;3.60;;;18.70;99.90;;;;;;5018338;28;20171;-78
2022/05/11 11:03:34;;;;;;;9.82;2.08;;;18.80;99.90;;;;;;5033331;28;20853;-78
2022/05/11 11:09:16;;;;;;;13.38;3.00;;;18.60;99.90;;;;;;5022480;28;20460;-78
2022/05/11 11:11:52;;;;;;;26.23;3.45;;;18.60;99.90;;;;;;5042063;28;20138;-78
2022/05/11 11:14:32;;;;;;;14.85;4.15;;;18.80;99.90;;;;;;5048458;28;20138;-78
2022/05/11 11:16:58;;;;;;;11.30;2.25;;;19.10;99.90;;;;;;5022851;28;20052;-79
2022/05/11 11:19:24;;;;;;;9.38;2.10;;;19.10;99.90;;;;;;5027600;28;20558;-79
2022/05/11 11:21:51;;;;;;;20.35;2.78;;;19.20;99.90;;;;;;5023173;28;20119;-81
2022/05/11 11:24:28;;;;;;;9.90;1.88;;;19.10;99.90;;;;;;5024031;28;20056;-80
2022/05/11 11:26:57;;;;;;;13.70;2.42;;;19.10;99.90;;;;;;5013624;28;20186;-80
2022/05/11 11:29:33;;;;;;;9.70;2.22;;;19.20;99.90;;;;;;5025818;28;20401;-79
2022/05/11 11:31:59;;;;;;;12.20;2.10;;;19.20;99.90;;;;;;5021610;28;20436;-82
2022/05/11 11:34:33;;;;;;;3.03;0.75;;;19.20;99.90;;;;;;5028211;28;20056;-80
2022/05/11 11:37:20;;;;;;;7.10;1.55;;;19.20;98.60;;;;;;5028306;28;20385;-79
2022/05/11 11:39:52;;;;;;;15.15;1.90;;;19.20;99.40;;;;;;5022794;28;20060;-79
2022/05/11 11:42:39;;;;;;;14.45;2.60;;;19.30;99.90;;;;;;5043607;28;20048;-79
2022/05/11 11:45:27;;;;;;;8.40;1.83;;;19.40;98.20;;;;;;5042036;28;20180;-80
2022/05/11 11:48:05;;;;;;;12.88;2.55;;;19.50;98.10;;;;;;5010456;28;20060;-79
2022/05/11 11:50:53;;;;;;;18.38;2.15;;;19.30;98.20;;;;;;5041028;28;20045;-80
2022/05/11 11:53:30;;;;;;;17.85;2.83;;;19.40;98.40;;;;;;5020632;28;20476;-82
2022/05/11 11:56:28;;;;;;;10.98;2.13;;;19.50;96.70;;;;;;5025069;28;20451;-79
2022/05/11 11:59:33;;;;;;;10.68;1.83;;;19.50;97.30;;;;;;5012098;28;20047;-78
2022/05/11 12:02:23;;;;;;;10.77;1.38;;;19.40;96.60;;;;;;5037090;28;20049;-80
2022/05/11 12:04:58;;;;;;;5.32;0.85;;;19.30;96.40;;;;;;5028373;28;20088;-79
2022/05/11 12:16:08;;;;;;;10.52;1.50;;;19.40;97.30;;;;;;5021836;28;20176;-79
2022/05/11 12:18:39;;;;;;;9.27;1.60;;;19.40;96.20;;;;;;5026496;28;20119;-80
2022/05/11 12:21:23;;;;;;;10.90;1.48;;;19.30;96.40;;;;;;5040023;28;20363;-81
2022/05/11 12:23:50;;;;;;;6.00;1.17;;;19.30;96.40;;;;;;5020418;28;20448;-78
2022/05/11 12:26:36;;;;;;;5.70;1.05;;;19.50;96.60;;;;;;5013369;28;20040;-80
2022/05/11 12:31:54;;;;;;;11.43;1.45;;;19.90;94.30;;;;;;5023517;28;20053;-78
2022/05/11 12:34:25;;;;;;;8.65;1.40;;;19.80;93.50;;;;;;5004027;28;20045;-80
2022/05/11 12:36:53;;;;;;;4.55;0.75;;;19.90;92.70;;;;;;5043261;28;20105;-79
2022/05/11 12:39:33;;;;;;;8.43;1.17;;;20.00;92.40;;;;;;4998784;28;20044;-80
2022/05/11 12:41:59;;;;;;;7.47;0.90;;;20.00;91.10;;;;;;5010994;28;20123;-80
2022/05/11 12:44:29;;;;;;;6.32;0.82;;;20.00;90.80;;;;;;5023220;28;20544;-79
2022/05/11 12:46:57;;;;;;;7.95;1.60;;;20.00;90.50;;;;;;5029977;28;20495;-78
2022/05/11 12:49:24;;;;;;;8.98;1.27;;;20.10;89.50;;;;;;5020707;28;20041;-78
2022/05/11 12:51:53;;;;;;;11.23;2.10;;;20.80;90.90;;;;;;5046502;28;20052;-78
2022/05/11 12:54:24;;;;;;;9.75;1.73;;;20.20;91.10;;;;;;5028531;28;20079;-78
2022/05/11 12:56:58;;;;;;;9.55;1.67;;;20.20;90.70;;;;;;5046059;28;20049;-79
2022/05/11 12:59:25;;;;;;;;;;;20.30;90.00;;;;;;5024928;28;20045;-79
2022/05/11 13:01:59;;;;;;;6.45;1.45;;;20.20;90.40;;;;;;5051475;28;19931;-78
2022/05/11 13:04:25;;;;;;;;;;;20.10;90.30;;;;;;5008073;28;20132;-79
2022/05/11 13:06:55;;;;;;;6.80;1.10;;;20.10;90.70;;;;;;5044285;28;20198;-79
2022/05/11 13:09:21;;;;;;;11.45;1.25;;;20.10;90.90;;;;;;5045716;28;20038;-80
2022/05/11 13:11:47;;;;;;;14.82;1.67;;;20.20;90.20;;;;;;5044650;28;20056;-81
2022/05/11 13:14:23;;;;;;;13.43;1.75;;;20.10;90.00;;;;;;5025429;28;20056;-72
2022/05/11 13:16:55;;;;;;;15.90;2.40;;;20.10;91.10;;;;;;5047269;28;20042;-76
2022/05/11 13:19:31;;;;;;;11.48;1.63;;;20.00;90.70;;;;;;5029794;28;20052;-76
2022/05/11 13:22:00;;;;;;;10.25;1.75;;;19.90;90.70;;;;;;5020325;28;20041;-76
2022/05/11 13:24:41;;;;;;;6.50;1.30;;;20.00;91.00;;;;;;5044475;28;20045;-76
2022/05/11 13:27:39;;;;;;;6.60;1.40;;;20.10;91.70;;;;;;5026205;28;20127;-75
2022/05/11 13:30:11;;;;;;;13.05;2.40;;;20.10;91.40;;;;;;5031617;28;20485;-71
2022/05/11 13:32:46;;;;;;;10.05;1.92;;;20.20;91.60;;;;;;5024409;28;20045;-78
2022/05/11 13:35:29;;;;;;;8.38;1.67;;;20.30;90.90;;;;;;5024473;28;20087;-79
2022/05/11 13:38:09;;;;;;;16.60;1.85;;;20.40;90.40;;;;;;5040628;28;20363;-78
2022/05/11 13:40:58;;;;;;;18.02;2.13;;;20.40;90.60;;;;;;5034857;28;20048;-79
2022/05/11 13:43:34;;;;;;;10.43;1.95;;;20.10;91.50;;;;;;5028435;28;20495;-78
2022/05/11 13:46:12;;;;;;;10.65;2.05;;;20.00;91.00;;;;;;5042378;28;20048;-78